Time,TemperatureF,DewpointF,PressureIn,WindDirection,WindDirectionDegrees,WindSpeedMPH,WindSpeedGustMPH,Humidity,HourlyPrecipIn,Conditions,Clouds,dailyrainin,SoftwareType,DateUTC
2013-01-30 00:00:00,39.0,0.0,30.24,NW,318,2.0,3.0,67,-99.99,,,-99.99,,2013-01-30 08:00:00,
2013-01-30 00:08:00,38.0,0.0,30.24,NNW,327,10.0,10.0,69,-99.99,,,-99.99,,2013-01-30 08:08:00,
2013-01-30 00:16:00,38.0,0.0,30.25,NW,319,10.0,10.0,66,-99.99,,,-99.99,,2013-01-30 08:16:00,
2013-01-30 00:24:00,38.0,0.0,30.25,NW,314,12.0,12.0,66,-99.99,,,-99.99,,2013-01-30 08:24:00,
2013-01-30 00:32:00,37.0,0.0,30.25,NW,312,14.0,14.0,66,-99.99,,,-99.99,,2013-01-30 08:32:00,
2013-01-30 00:40:00,40.0,0.0,30.25,NW,317,0.0,0.0,62,-99.99,,,-99.99,,2013-01-30 08:40:00,
2013-01-30 00:48:00,39.0,0.0,30.25,WNW,293,5.0,5.0,61,-99.99,,,-99.99,,2013-01-30 08:48:00,
2013-01-30 00:56:00,40.0,0.0,30.25,NW,312,0.0,0.0,60,-99.99,,,-99.99,,2013-01-30 08:56:00,
2013-01-30 01:04:00,39.0,0.0,30.25,NW,316,0.0,0.0,65,-99.99,,,-99.99,,2013-01-30 09:04:00,
2013-01-30 01:12:00,39.0,0.0,30.25,NW,311,3.0,3.0,62,-99.99,,,-99.99,,2013-01-30 09:12:00,
2013-01-30 01:20:00,39.0,0.0,30.25,NW,304,12.0,12.0,60,-99.99,,,-99.99,,2013-01-30 09:20:00,
2013-01-30 01:28:00,38.0,0.0,30.25,West,273,12.0,12.0,65,-99.99,,,-99.99,,2013-01-30 09:28:00,
2013-01-30 01:36:00,38.0,0.0,30.25,NNW,329,0.0,0.0,65,-99.99,,,-99.99,,2013-01-30 09:36:00,
2013-01-30 01:44:00,41.0,0.0,30.25,NW,322,7.0,7.0,55,-99.99,,,-99.99,,2013-01-30 09:44:00,
2013-01-30 01:52:00,40.0,0.0,30.25,NW,314,8.0,8.0,61,-99.99,,,-99.99,,2013-01-30 09:52:00,
2013-01-30 02:00:00,40.0,0.0,30.25,West,271,0.0,0.0,59,-99.99,,,-99.99,,2013-01-30 10:00:00,
2013-01-30 02:08:00,39.0,0.0,30.25,WSW,255,0.0,0.0,59,-99.99,,,-99.99,,2013-01-30 10:08:00,
2013-01-30 02:16:00,41.0,0.0,30.25,West,260,0.0,0.0,56,-99.99,,,-99.99,,2013-01-30 10:16:00,
2013-01-30 02:24:00,40.0,0.0,30.25,SW,220,0.0,0.0,54,-99.99,,,-99.99,,2013-01-30 10:24:00,
2013-01-30 02:32:00,41.0,0.0,30.25,WSW,244,0.0,0.0,54,-99.99,,,-99.99,,2013-01-30 10:32:00,
2013-01-30 02:40:00,42.0,0.0,30.25,WSW,249,0.0,0.0,52,-99.99,,,-99.99,,2013-01-30 10:40:00,
2013-01-30 02:48:00,42.0,0.0,30.25,West,275,0.0,0.0,50,-99.99,,,-99.99,,2013-01-30 10:48:00,
2013-01-30 02:56:00,43.0,0.0,30.25,West,278,0.0,0.0,49,-99.99,,,-99.99,,2013-01-30 10:56:00,
2013-01-30 03:04:00,43.0,0.0,30.25,West,279,0.0,0.0,48,-99.99,,,-99.99,,2013-01-30 11:04:00,
2013-01-30 03:12:00,44.0,0.0,30.25,West,263,0.0,0.0,48,-99.99,,,-99.99,,2013-01-30 11:12:00,
2013-01-30 03:20:00,44.0,0.0,30.25,WSW,246,0.0,0.0,46,-99.99,,,-99.99,,2013-01-30 11:20:00,
2013-01-30 03:28:00,46.0,0.0,30.26,SW,220,0.0,0.0,46,-99.99,,,-99.99,,2013-01-30 11:28:00,
2013-01-30 03:36:00,44.0,0.0,30.26,ESE,105,0.0,0.0,46,-99.99,,,-99.99,,2013-01-30 11:36:00,
2013-01-30 03:44:00,44.0,0.0,30.26,North,1,0.0,0.0,47,-99.99,,,-99.99,,2013-01-30 11:44:00,
2013-01-30 03:52:00,44.0,0.0,30.26,SE,127,0.0,0.0,47,-99.99,,,-99.99,,2013-01-30 11:52:00,
2013-01-30 04:00:00,41.0,0.0,30.26,NNE,27,0.0,0.0,54,-99.99,,,-99.99,,2013-01-30 12:00:00,
2013-01-30 04:08:00,38.0,0.0,30.27,NW,308,15.0,15.0,59,-99.99,,,-99.99,,2013-01-30 12:08:00,
2013-01-30 04:16:00,36.0,0.0,30.27,West,276,14.0,14.0,66,-99.99,,,-99.99,,2013-01-30 12:16:00,
2013-01-30 04:24:00,37.0,0.0,30.27,NW,310,14.0,14.0,62,-99.99,,,-99.99,,2013-01-30 12:24:00,
2013-01-30 04:32:00,37.0,0.0,30.27,WNW,302,12.0,12.0,65,-99.99,,,-99.99,,2013-01-30 12:32:00,
2013-01-30 04:40:00,36.0,0.0,30.27,NW,316,13.0,15.0,64,-99.99,,,-99.99,,2013-01-30 12:40:00,
2013-01-30 04:48:00,38.0,0.0,30.27,WNW,289,16.0,18.0,65,-99.99,,,-99.99,,2013-01-30 12:48:00,
2013-01-30 04:56:00,40.0,0.0,30.27,NW,309,16.0,18.0,59,-99.99,,,-99.99,,2013-01-30 12:56:00,
2013-01-30 05:04:00,40.0,0.0,30.27,WNW,302,17.0,18.0,58,-99.99,,,-99.99,,2013-01-30 13:04:00,
2013-01-30 05:12:00,41.0,0.0,30.27,WNW,297,12.0,13.0,58,-99.99,,,-99.99,,2013-01-30 13:12:00,
2013-01-30 05:20:00,40.0,0.0,30.27,NW,304,14.0,14.0,60,-99.99,,,-99.99,,2013-01-30 13:20:00,
2013-01-30 05:28:00,40.0,0.0,30.28,NW,318,12.0,12.0,59,-99.99,,,-99.99,,2013-01-30 13:28:00,
2013-01-30 05:36:00,39.0,0.0,30.28,NW,305,16.0,16.0,64,-99.99,,,-99.99,,2013-01-30 13:36:00,
2013-01-30 05:44:00,39.0,0.0,30.28,WNW,301,16.0,16.0,61,-99.99,,,-99.99,,2013-01-30 13:44:00,
2013-01-30 05:52:00,39.0,0.0,30.29,SW,217,16.0,16.0,61,-99.99,,,-99.99,,2013-01-30 13:52:00,
2013-01-30 06:00:00,40.0,0.0,30.29,WNW,302,15.0,16.0,61,-99.99,,,-99.99,,2013-01-30 14:00:00,
2013-01-30 06:08:00,39.0,0.0,30.29,NW,322,12.0,16.0,62,-99.99,,,-99.99,,2013-01-30 14:08:00,
2013-01-30 06:16:00,39.0,0.0,30.30,NW,315,10.0,10.0,63,-99.99,,,-99.99,,2013-01-30 14:16:00,
2013-01-30 06:24:00,40.0,0.0,30.30,WNW,282,10.0,10.0,60,-99.99,,,-99.99,,2013-01-30 14:24:00,
2013-01-30 06:32:00,40.0,0.0,30.30,NW,307,6.0,6.0,59,-99.99,,,-99.99,,2013-01-30 14:32:00,
2013-01-30 06:40:00,40.0,0.0,30.30,NW,316,0.0,0.0,61,-99.99,,,-99.99,,2013-01-30 14:40:00,
2013-01-30 06:48:00,40.0,0.0,30.30,NW,324,10.0,10.0,62,-99.99,,,-99.99,,2013-01-30 14:48:00,
2013-01-30 06:56:00,39.0,0.0,30.30,NW,315,12.0,12.0,60,-99.99,,,-99.99,,2013-01-30 14:56:00,
2013-01-30 07:04:00,39.0,0.0,30.31,NNW,329,12.0,13.0,61,-99.99,,,-99.99,,2013-01-30 15:04:00,
2013-01-30 07:12:00,40.0,0.0,30.31,NW,310,9.0,9.0,62,-99.99,,,-99.99,,2013-01-30 15:12:00,
2013-01-30 07:20:00,41.0,0.0,30.32,NNW,330,13.0,13.0,57,-99.99,,,-99.99,,2013-01-30 15:20:00,
2013-01-30 07:28:00,42.0,0.0,30.32,NW,316,13.0,13.0,58,-99.99,,,-99.99,,2013-01-30 15:28:00,
2013-01-30 07:36:00,44.0,0.0,30.32,NNW,331,8.0,9.0,52,-99.99,,,-99.99,,2013-01-30 15:36:00,
2013-01-30 07:44:00,46.0,0.0,30.33,NW,315,10.0,10.0,50,-99.99,,,-99.99,,2013-01-30 15:44:00,
2013-01-30 07:52:00,45.0,0.0,30.33,NW,314,5.0,7.0,51,-99.99,,,-99.99,,2013-01-30 15:52:00,
2013-01-30 08:00:00,46.0,0.0,30.33,NW,325,0.0,0.0,49,-99.99,,,-99.99,,2013-01-30 16:00:00,
2013-01-30 08:08:00,47.0,0.0,30.34,NW,319,0.0,0.0,49,-99.99,,,-99.99,,2013-01-30 16:08:00,
2013-01-30 08:16:00,48.0,0.0,30.34,NW,321,0.0,0.0,49,-99.99,,,-99.99,,2013-01-30 16:16:00,
2013-01-30 08:24:00,48.0,0.0,30.34,NW,320,5.0,6.0,49,-99.99,,,-99.99,,2013-01-30 16:24:00,
2013-01-30 08:32:00,49.0,0.0,30.34,NW,322,0.0,0.0,48,-99.99,,,-99.99,,2013-01-30 16:32:00,
2013-01-30 08:40:00,50.0,0.0,30.34,NW,322,3.0,3.0,45,-99.99,,,-99.99,,2013-01-30 16:40:00,
2013-01-30 08:48:00,52.0,0.0,30.34,NW,320,2.0,2.0,41,-99.99,,,-99.99,,2013-01-30 16:48:00,
2013-01-30 08:56:00,53.0,0.0,30.34,NW,312,5.0,5.0,37,-99.99,,,-99.99,,2013-01-30 16:56:00,
2013-01-30 09:04:00,54.0,0.0,30.34,NW,314,3.0,3.0,35,-99.99,,,-99.99,,2013-01-30 17:04:00,
2013-01-30 09:12:00,54.0,0.0,30.34,NW,314,5.0,5.0,36,-99.99,,,-99.99,,2013-01-30 17:12:00,
2013-01-30 09:20:00,55.0,0.0,30.34,NW,322,2.0,3.0,36,-99.99,,,-99.99,,2013-01-30 17:20:00,
2013-01-30 09:28:00,56.0,0.0,30.34,NW,314,5.0,5.0,36,-99.99,,,-99.99,,2013-01-30 17:28:00,
2013-01-30 09:36:00,56.0,0.0,30.34,NW,308,5.0,6.0,34,-99.99,,,-99.99,,2013-01-30 17:36:00,
2013-01-30 09:44:00,58.0,0.0,30.34,NW,310,5.0,5.0,35,-99.99,,,-99.99,,2013-01-30 17:44:00,
2013-01-30 09:52:00,59.0,0.0,30.34,NW,324,3.0,3.0,30,-99.99,,,-99.99,,2013-01-30 17:52:00,
2013-01-30 10:00:00,59.0,0.0,30.34,NW,313,3.0,5.0,31,-99.99,,,-99.99,,2013-01-30 18:00:00,
2013-01-30 10:08:00,60.0,0.0,30.34,NW,304,2.0,2.0,30,-99.99,,,-99.99,,2013-01-30 18:08:00,
2013-01-30 10:16:00,60.0,0.0,30.34,NW,321,0.0,0.0,29,-99.99,,,-99.99,,2013-01-30 18:16:00,
2013-01-30 10:24:00,60.0,0.0,30.34,NW,311,7.0,7.0,30,-99.99,,,-99.99,,2013-01-30 18:24:00,
2013-01-30 10:32:00,60.0,0.0,30.34,NNW,334,2.0,2.0,30,-99.99,,,-99.99,,2013-01-30 18:32:00,
2013-01-30 10:40:00,61.0,0.0,30.34,NW,324,5.0,5.0,30,-99.99,,,-99.99,,2013-01-30 18:40:00,
2013-01-30 10:48:00,61.0,0.0,30.34,NNW,335,2.0,2.0,29,-99.99,,,-99.99,,2013-01-30 18:48:00,
2013-01-30 10:56:00,62.0,0.0,30.34,NNW,334,1.0,1.0,28,-99.99,,,-99.99,,2013-01-30 18:56:00,
2013-01-30 11:04:00,62.0,0.0,30.34,NNW,332,0.0,0.0,29,-99.99,,,-99.99,,2013-01-30 19:04:00,
2013-01-30 11:12:00,62.0,0.0,30.33,NNW,327,0.0,0.0,29,-99.99,,,-99.99,,2013-01-30 19:12:00,
2013-01-30 11:20:00,61.0,0.0,30.33,NW,312,0.0,0.0,26,-99.99,,,-99.99,,2013-01-30 19:20:00,
2013-01-30 11:29:00,62.0,0.0,30.33,NNW,330,7.0,7.0,29,-99.99,,,-99.99,,2013-01-30 19:29:00,
2013-01-30 11:36:00,63.0,0.0,30.33,NNW,332,2.0,2.0,28,-99.99,,,-99.99,,2013-01-30 19:36:00,
2013-01-30 11:44:00,60.0,0.0,30.32,SE,146,5.0,7.0,29,-99.99,,,-99.99,,2013-01-30 19:44:00,
2013-01-30 11:54:00,60.0,0.0,30.32,West,262,2.0,2.0,30,-99.99,,,-99.99,,2013-01-30 19:54:00,
2013-01-30 12:00:00,60.0,0.0,30.31,SSW,211,3.0,5.0,30,-99.99,,,-99.99,,2013-01-30 20:00:00,
2013-01-30 12:09:00,60.0,0.0,30.31,South,185,6.0,6.0,30,-99.99,,,-99.99,,2013-01-30 20:09:00,
2013-01-30 12:17:00,60.0,0.0,30.31,South,172,3.0,3.0,29,-99.99,,,-99.99,,2013-01-30 20:17:00,
2013-01-30 12:24:00,60.0,0.0,30.30,WSW,243,3.0,3.0,30,-99.99,,,-99.99,,2013-01-30 20:24:00,
2013-01-30 12:33:00,60.0,0.0,30.29,West,264,3.0,3.0,29,-99.99,,,-99.99,,2013-01-30 20:33:00,
2013-01-30 12:40:00,60.0,0.0,30.29,WSW,256,0.0,0.0,29,-99.99,,,-99.99,,2013-01-30 20:40:00,
2013-01-30 12:48:00,61.0,0.0,30.28,South,174,7.0,7.0,28,-99.99,,,-99.99,,2013-01-30 20:48:00,
2013-01-30 12:56:00,62.0,0.0,30.28,SW,217,2.0,2.0,28,-99.99,,,-99.99,,2013-01-30 20:56:00,
2013-01-30 13:04:00,61.0,0.0,30.27,WSW,244,2.0,2.0,29,-99.99,,,-99.99,,2013-01-30 21:04:00,
2013-01-30 13:12:00,62.0,0.0,30.27,SSW,195,2.0,3.0,27,-99.99,,,-99.99,,2013-01-30 21:12:00,
2013-01-30 13:20:00,62.0,0.0,30.27,South,188,0.0,0.0,26,-99.99,,,-99.99,,2013-01-30 21:20:00,
2013-01-30 13:28:00,63.0,0.0,30.26,NNW,341,1.0,1.0,27,-99.99,,,-99.99,,2013-01-30 21:28:00,
2013-01-30 13:36:00,64.0,0.0,30.26,NNW,338,2.0,2.0,27,-99.99,,,-99.99,,2013-01-30 21:36:00,
2013-01-30 13:44:00,63.0,0.0,30.26,WSW,238,5.0,5.0,26,-99.99,,,-99.99,,2013-01-30 21:44:00,
2013-01-30 13:52:00,63.0,0.0,30.26,WSW,258,5.0,6.0,26,-99.99,,,-99.99,,2013-01-30 21:52:00,
2013-01-30 14:00:00,62.0,0.0,30.25,WSW,257,0.0,0.0,29,-99.99,,,-99.99,,2013-01-30 22:00:00,
2013-01-30 14:08:00,63.0,0.0,30.25,NNW,342,0.0,2.0,26,-99.99,,,-99.99,,2013-01-30 22:08:00,
2013-01-30 14:16:00,62.0,0.0,30.25,SSE,167,5.0,5.0,28,-99.99,,,-99.99,,2013-01-30 22:16:00,
2013-01-30 14:24:00,62.0,0.0,30.25,SW,219,5.0,5.0,28,-99.99,,,-99.99,,2013-01-30 22:24:00,
2013-01-30 14:32:00,61.0,0.0,30.25,SSW,200,7.0,8.0,26,-99.99,,,-99.99,,2013-01-30 22:32:00,
2013-01-30 14:40:00,61.0,0.0,30.25,SW,214,3.0,3.0,26,-99.99,,,-99.99,,2013-01-30 22:40:00,
2013-01-30 14:48:00,61.0,0.0,30.25,SSW,211,3.0,7.0,28,-99.99,,,-99.99,,2013-01-30 22:48:00,
2013-01-30 14:56:00,62.0,0.0,30.24,West,269,5.0,5.0,28,-99.99,,,-99.99,,2013-01-30 22:56:00,
2013-01-30 15:04:00,62.0,0.0,30.24,SSW,193,9.0,9.0,26,-99.99,,,-99.99,,2013-01-30 23:04:00,
2013-01-30 15:12:00,61.0,0.0,30.24,WSW,251,3.0,5.0,27,-99.99,,,-99.99,,2013-01-30 23:12:00,
2013-01-30 15:20:00,62.0,0.0,30.24,SW,225,6.0,6.0,26,-99.99,,,-99.99,,2013-01-30 23:20:00,
2013-01-30 15:28:00,62.0,0.0,30.24,West,278,0.0,1.0,30,-99.99,,,-99.99,,2013-01-30 23:28:00,
2013-01-30 15:36:00,62.0,0.0,30.24,West,259,6.0,6.0,28,-99.99,,,-99.99,,2013-01-30 23:36:00,
2013-01-30 15:44:00,61.0,0.0,30.24,West,262,3.0,3.0,28,-99.99,,,-99.99,,2013-01-30 23:44:00,
2013-01-30 15:52:00,61.0,0.0,30.24,WNW,293,0.0,0.0,28,-99.99,,,-99.99,,2013-01-30 23:52:00,
2013-01-30 16:00:00,61.0,0.0,30.23,SSW,200,6.0,6.0,27,-99.99,,,-99.99,,2013-01-31 00:00:00,
2013-01-30 16:08:00,61.0,0.0,30.23,SW,232,7.0,7.0,26,-99.99,,,-99.99,,2013-01-31 00:08:00,
2013-01-30 16:16:00,61.0,0.0,30.23,SW,232,0.0,0.0,27,-99.99,,,-99.99,,2013-01-31 00:16:00,
2013-01-30 16:24:00,61.0,0.0,30.23,SW,223,7.0,7.0,28,-99.99,,,-99.99,,2013-01-31 00:24:00,
2013-01-30 16:32:00,61.0,0.0,30.23,SSW,206,0.0,0.0,28,-99.99,,,-99.99,,2013-01-31 00:32:00,
2013-01-30 16:40:00,61.0,0.0,30.22,SSW,199,0.0,0.0,27,-99.99,,,-99.99,,2013-01-31 00:40:00,
2013-01-30 16:48:00,61.0,0.0,30.22,SSW,200,0.0,0.0,28,-99.99,,,-99.99,,2013-01-31 00:48:00,
2013-01-30 16:56:00,61.0,0.0,30.22,SSW,194,6.0,6.0,28,-99.99,,,-99.99,,2013-01-31 00:56:00,
2013-01-30 17:04:00,61.0,0.0,30.22,SSE,160,0.0,0.0,27,-99.99,,,-99.99,,2013-01-31 01:04:00,
2013-01-30 17:12:00,61.0,0.0,30.22,ESE,113,0.0,0.0,31,-99.99,,,-99.99,,2013-01-31 01:12:00,
2013-01-30 17:20:00,60.0,0.0,30.22,ESE,103,0.0,0.0,29,-99.99,,,-99.99,,2013-01-31 01:20:00,
2013-01-30 17:28:00,59.0,0.0,30.23,NE,49,0.0,0.0,28,-99.99,,,-99.99,,2013-01-31 01:28:00,
2013-01-30 17:36:00,59.0,0.0,30.23,NNE,16,0.0,0.0,31,-99.99,,,-99.99,,2013-01-31 01:36:00,
2013-01-30 17:44:00,58.0,0.0,30.23,NNW,340,0.0,0.0,32,-99.99,,,-99.99,,2013-01-31 01:44:00,
2013-01-30 17:52:00,57.0,0.0,30.23,North,6,0.0,0.0,33,-99.99,,,-99.99,,2013-01-31 01:52:00,
2013-01-30 18:00:00,57.0,0.0,30.23,North,1,1.0,1.0,31,-99.99,,,-99.99,,2013-01-31 02:00:00,
2013-01-30 18:08:00,57.0,0.0,30.24,North,1,0.0,0.0,33,-99.99,,,-99.99,,2013-01-31 02:08:00,
2013-01-30 18:16:00,55.0,0.0,30.24,NW,317,2.0,2.0,36,-99.99,,,-99.99,,2013-01-31 02:16:00,
2013-01-30 18:24:00,54.0,0.0,30.24,NW,323,3.0,3.0,35,-99.99,,,-99.99,,2013-01-31 02:24:00,
2013-01-30 18:32:00,54.0,0.0,30.24,NW,326,3.0,3.0,34,-99.99,,,-99.99,,2013-01-31 02:32:00,
2013-01-30 18:40:00,54.0,0.0,30.24,NW,322,3.0,5.0,37,-99.99,,,-99.99,,2013-01-31 02:40:00,
2013-01-30 18:48:00,53.0,0.0,30.24,WNW,299,5.0,5.0,37,-99.99,,,-99.99,,2013-01-31 02:48:00,
2013-01-30 18:56:00,52.0,0.0,30.24,NW,319,5.0,5.0,40,-99.99,,,-99.99,,2013-01-31 02:56:00,
2013-01-30 19:04:00,51.0,0.0,30.25,WNW,301,5.0,5.0,40,-99.99,,,-99.99,,2013-01-31 03:04:00,
2013-01-30 19:12:00,50.0,0.0,30.25,WNW,301,7.0,7.0,42,-99.99,,,-99.99,,2013-01-31 03:12:00,
2013-01-30 19:20:00,50.0,0.0,30.25,NW,321,5.0,5.0,45,-99.99,,,-99.99,,2013-01-31 03:20:00,
2013-01-30 19:29:00,50.0,0.0,30.25,NW,322,6.0,6.0,44,-99.99,,,-99.99,,2013-01-31 03:29:00,
2013-01-30 19:36:00,49.0,0.0,30.25,NW,320,6.0,6.0,45,-99.99,,,-99.99,,2013-01-31 03:36:00,
2013-01-30 19:44:00,48.0,0.0,30.25,NW,316,6.0,6.0,46,-99.99,,,-99.99,,2013-01-31 03:44:00,
2013-01-30 19:52:00,48.0,0.0,30.25,NW,321,6.0,6.0,48,-99.99,,,-99.99,,2013-01-31 03:52:00,
2013-01-30 20:00:00,48.0,0.0,30.25,NW,307,6.0,6.0,51,-99.99,,,-99.99,,2013-01-31 04:00:00,
2013-01-30 20:08:00,47.0,0.0,30.25,NW,319,6.0,7.0,48,-99.99,,,-99.99,,2013-01-31 04:08:00,
2013-01-30 20:16:00,47.0,0.0,30.25,NW,306,2.0,5.0,50,-99.99,,,-99.99,,2013-01-31 04:16:00,
2013-01-30 20:24:00,47.0,0.0,30.25,NW,324,3.0,3.0,48,-99.99,,,-99.99,,2013-01-31 04:24:00,
2013-01-30 20:32:00,46.0,0.0,30.25,NW,323,3.0,5.0,50,-99.99,,,-99.99,,2013-01-31 04:32:00,
2013-01-30 20:40:00,45.0,0.0,30.25,WNW,301,6.0,6.0,51,-99.99,,,-99.99,,2013-01-31 04:40:00,
2013-01-30 20:48:00,45.0,0.0,30.25,WNW,295,6.0,6.0,56,-99.99,,,-99.99,,2013-01-31 04:48:00,
2013-01-30 20:56:00,45.0,0.0,30.25,NW,323,3.0,3.0,55,-99.99,,,-99.99,,2013-01-31 04:56:00,
2013-01-30 21:01:00,45.0,0.0,30.26,NW,313,3.0,3.0,54,-99.99,,,-99.99,,2013-01-31 05:01:00,
2013-01-30 21:04:00,45.0,0.0,30.26,NW,323,7.0,7.0,54,-99.99,,,-99.99,,2013-01-31 05:04:00,
2013-01-30 21:12:00,45.0,0.0,30.26,NW,309,6.0,6.0,54,-99.99,,,-99.99,,2013-01-31 05:12:00,
2013-01-30 21:16:00,45.0,0.0,30.26,NW,312,6.0,6.0,52,-99.99,,,-99.99,,2013-01-31 05:16:00,
2013-01-30 21:24:00,44.0,0.0,30.26,NW,321,7.0,7.0,54,-99.99,,,-99.99,,2013-01-31 05:24:00,
2013-01-30 21:32:00,44.0,0.0,30.26,NW,323,0.0,0.0,55,-99.99,,,-99.99,,2013-01-31 05:32:00,
2013-01-30 21:40:00,44.0,0.0,30.26,NW,320,10.0,10.0,56,-99.99,,,-99.99,,2013-01-31 05:40:00,
2013-01-30 21:48:00,43.0,0.0,30.26,NW,314,10.0,10.0,57,-99.99,,,-99.99,,2013-01-31 05:48:00,
2013-01-30 21:56:00,43.0,0.0,30.26,NW,321,6.0,6.0,59,-99.99,,,-99.99,,2013-01-31 05:56:00,
2013-01-30 22:04:00,43.0,0.0,30.26,NW,322,9.0,9.0,56,-99.99,,,-99.99,,2013-01-31 06:04:00,
2013-01-30 22:12:00,43.0,0.0,30.26,NW,320,12.0,13.0,55,-99.99,,,-99.99,,2013-01-31 06:12:00,
2013-01-30 22:20:00,42.0,0.0,30.26,NW,310,9.0,12.0,56,-99.99,,,-99.99,,2013-01-31 06:20:00,
2013-01-30 22:28:00,42.0,0.0,30.26,NW,320,8.0,9.0,56,-99.99,,,-99.99,,2013-01-31 06:28:00,
2013-01-30 22:36:00,42.0,0.0,30.26,NW,322,7.0,8.0,57,-99.99,,,-99.99,,2013-01-31 06:36:00,
2013-01-30 22:44:00,42.0,0.0,30.26,NW,306,7.0,7.0,59,-99.99,,,-99.99,,2013-01-31 06:44:00,
2013-01-30 22:52:00,42.0,0.0,30.27,NW,316,12.0,12.0,58,-99.99,,,-99.99,,2013-01-31 06:52:00,
2013-01-30 23:00:00,42.0,0.0,30.27,NW,311,8.0,8.0,58,-99.99,,,-99.99,,2013-01-31 07:00:00,
2013-01-30 23:08:00,41.0,0.0,30.27,NW,320,13.0,13.0,58,-99.99,,,-99.99,,2013-01-31 07:08:00,
2013-01-30 23:16:00,41.0,0.0,30.27,NW,320,10.0,10.0,62,-99.99,,,-99.99,,2013-01-31 07:16:00,
2013-01-30 23:24:00,41.0,0.0,30.27,NW,323,8.0,10.0,59,-99.99,,,-99.99,,2013-01-31 07:24:00,
2013-01-30 23:32:00,41.0,0.0,30.27,NW,319,9.0,9.0,58,-99.99,,,-99.99,,2013-01-31 07:32:00,
2013-01-30 23:40:00,41.0,0.0,30.27,NNW,327,8.0,9.0,60,-99.99,,,-99.99,,2013-01-31 07:40:00,
2013-01-30 23:48:00,41.0,0.0,30.27,NW,312,9.0,9.0,58,-99.99,,,-99.99,,2013-01-31 07:48:00,
2013-01-30 23:56:00,41.0,0.0,30.27,NW,320,0.0,0.0,59,-99.99,,,-99.99,,2013-01-31 07:56:00,